sensor_id;sensor_type;location;lat;lon;timestamp;P1;durP1;ratioP1;P2;durP2;ratioP2
74459;SDS011;62902;48.854;9.292;2023-04-25T00:00:49;5.90;;;4.13;;
74459;SDS011;62902;48.854;9.292;2023-04-25T00:03:16;142.90;;;83.38;;
74459;SDS011;62902;48.854;9.292;2023-04-25T00:05:44;25.08;;;12.88;;
74459;SDS011;62902;48.854;9.292;2023-04-25T00:08:11;145.60;;;74.28;;
74459;SDS011;62902;48.854;9.292;2023-04-25T00:10:38;290.30;;;140.93;;
74459;SDS011;62902;48.854;9.292;2023-04-25T00:13:04;429.25;;;177.90;;
74459;SDS011;62902;48.854;9.292;2023-04-25T00:15:32;451.45;;;192.93;;
74459;SDS011;62902;48.854;9.292;2023-04-25T00:17:58;391.55;;;158.90;;
74459;SDS011;62902;48.854;9.292;2023-04-25T00:20:25;524.42;;;225.60;;
74459;SDS011;62902;48.854;9.292;2023-04-25T00:22:52;501.90;;;212.35;;
74459;SDS011;62902;48.854;9.292;2023-04-25T00:25:23;651.03;;;287.23;;
74459;SDS011;62902;48.854;9.292;2023-04-25T00:27:49;546.88;;;249.07;;
74459;SDS011;62902;48.854;9.292;2023-04-25T00:30:16;573.47;;;246.50;;
74459;SDS011;62902;48.854;9.292;2023-04-25T00:32:43;281.77;;;135.52;;
74459;SDS011;62902;48.854;9.292;2023-04-25T00:35:09;193.85;;;98.55;;
74459;SDS011;62902;48.854;9.292;2023-04-25T00:37:36;627.30;;;291.70;;
74459;SDS011;62902;48.854;9.292;2023-04-25T00:40:04;568.63;;;260.73;;
74459;SDS011;62902;48.854;9.292;2023-04-25T00:42:32;217.23;;;111.28;;
74459;SDS011;62902;48.854;9.292;2023-04-25T00:45:00;8.73;;;6.50;;
74459;SDS011;62902;48.854;9.292;2023-04-25T00:47:27;5.53;;;2.67;;
74459;SDS011;62902;48.854;9.292;2023-04-25T00:49:54;3.33;;;1.80;;
74459;SDS011;62902;48.854;9.292;2023-04-25T00:52:21;2.97;;;1.70;;
74459;SDS011;62902;48.854;9.292;2023-04-25T00:54:48;72.32;;;41.55;;
74459;SDS011;62902;48.854;9.292;2023-04-25T00:57:14;5.10;;;1.90;;
74459;SDS011;62902;48.854;9.292;2023-04-25T00:59:42;3.65;;;1.40;;
74459;SDS011;62902;48.854;9.292;2023-04-25T01:02:12;276.70;;;133.15;;
74459;SDS011;62902;48.854;9.292;2023-04-25T01:04:39;3.25;;;1.30;;
74459;SDS011;62902;48.854;9.292;2023-04-25T01:07:05;3.65;;;1.50;;
74459;SDS011;62902;48.854;9.292;2023-04-25T01:09:32;2.47;;;1.30;;
74459;SDS011;62902;48.854;9.292;2023-04-25T01:11:59;2.47;;;1.08;;
74459;SDS011;62902;48.854;9.292;2023-04-25T01:14:27;2.55;;;1.27;;
74459;SDS011;62902;48.854;9.292;2023-04-25T01:16:53;4.85;;;1.35;;
74459;SDS011;62902;48.854;9.292;2023-04-25T01:19:20;135.25;;;61.15;;
74459;SDS011;62902;48.854;9.292;2023-04-25T01:21:47;587.25;;;267.98;;
74459;SDS011;62902;48.854;9.292;2023-04-25T01:24:14;390.27;;;163.65;;
74459;SDS011;62902;48.854;9.292;2023-04-25T01:26:41;381.60;;;165.20;;
74459;SDS011;62902;48.854;9.292;2023-04-25T01:29:11;463.33;;;203.70;;
74459;SDS011;62902;48.854;9.292;2023-04-25T01:31:38;257.67;;;122.30;;
74459;SDS011;62902;48.854;9.292;2023-04-25T01:34:04;126.95;;;70.03;;
74459;SDS011;62902;48.854;9.292;2023-04-25T01:36:31;175.15;;;84.75;;
74459;SDS011;62902;48.854;9.292;2023-04-25T01:38:59;382.25;;;162.43;;
74459;SDS011;62902;48.854;9.292;2023-04-25T01:41:27;512.55;;;220.32;;
74459;SDS011;62902;48.854;9.292;2023-04-25T01:43:54;544.35;;;237.50;;
74459;SDS011;62902;48.854;9.292;2023-04-25T01:46:21;402.20;;;182.60;;
74459;SDS011;62902;48.854;9.292;2023-04-25T01:48:48;160.82;;;72.57;;
74459;SDS011;62902;48.854;9.292;2023-04-25T01:51:14;3.47;;;1.60;;
74459;SDS011;62902;48.854;9.292;2023-04-25T01:53:42;3.78;;;1.35;;
74459;SDS011;62902;48.854;9.292;2023-04-25T01:56:09;3.30;;;1.35;;
74459;SDS011;62902;48.854;9.292;2023-04-25T01:58:37;3.13;;;1.40;;
74459;SDS011;62902;48.854;9.292;2023-04-25T02:01:12;4.13;;;1.60;;
74459;SDS011;62902;48.854;9.292;2023-04-25T02:03:45;3.53;;;1.63;;
74459;SDS011;62902;48.854;9.292;2023-04-25T02:06:20;3.50;;;1.60;;
74459;SDS011;62902;48.854;9.292;2023-04-25T02:08:48;5.03;;;1.42;;
74459;SDS011;62902;48.854;9.292;2023-04-25T02:11:15;3.25;;;1.45;;
74459;SDS011;62902;48.854;9.292;2023-04-25T02:13:52;3.22;;;1.42;;
74459;SDS011;62902;48.854;9.292;2023-04-25T02:16:37;4.53;;;1.52;;
74459;SDS011;62902;48.854;9.292;2023-04-25T02:19:06;6.68;;;1.60;;
74459;SDS011;62902;48.854;9.292;2023-04-25T02:21:33;4.95;;;1.65;;
74459;SDS011;62902;48.854;9.292;2023-04-25T02:24:02;3.10;;;1.60;;
74459;SDS011;62902;48.854;9.292;2023-04-25T02:26:30;4.55;;;1.70;;
74459;SDS011;62902;48.854;9.292;2023-04-25T02:28:56;3.13;;;1.45;;
74459;SDS011;62902;48.854;9.292;2023-04-25T02:31:23;3.60;;;1.40;;
74459;SDS011;62902;48.854;9.292;2023-04-25T02:33:51;4.72;;;2.33;;
74459;SDS011;62902;48.854;9.292;2023-04-25T02:36:18;5.55;;;1.73;;
74459;SDS011;62902;48.854;9.292;2023-04-25T02:38:44;24.45;;;14.07;;
74459;SDS011;62902;48.854;9.292;2023-04-25T02:41:11;5.75;;;1.58;;
74459;SDS011;62902;48.854;9.292;2023-04-25T02:43:37;3.38;;;1.55;;
74459;SDS011;62902;48.854;9.292;2023-04-25T02:46:04;3.95;;;1.65;;
74459;SDS011;62902;48.854;9.292;2023-04-25T02:48:31;4.82;;;2.20;;
74459;SDS011;62902;48.854;9.292;2023-04-25T02:50:57;4.38;;;1.85;;
74459;SDS011;62902;48.854;9.292;2023-04-25T02:53:24;4.00;;;2.30;;
74459;SDS011;62902;48.854;9.292;2023-04-25T02:55:52;3.05;;;1.48;;
74459;SDS011;62902;48.854;9.292;2023-04-25T02:58:19;3.90;;;1.80;;
74459;SDS011;62902;48.854;9.292;2023-04-25T03:00:48;6.70;;;1.65;;
74459;SDS011;62902;48.854;9.292;2023-04-25T03:03:16;4.15;;;1.92;;
74459;SDS011;62902;48.854;9.292;2023-04-25T03:05:44;28.98;;;18.45;;
74459;SDS011;62902;48.854;9.292;2023-04-25T03:08:13;4.18;;;1.98;;
74459;SDS011;62902;48.854;9.292;2023-04-25T03:10:39;4.40;;;2.58;;
74459;SDS011;62902;48.854;9.292;2023-04-25T03:13:08;15.98;;;10.63;;
74459;SDS011;62902;48.854;9.292;2023-04-25T03:15:35;12.98;;;8.13;;
74459;SDS011;62902;48.854;9.292;2023-04-25T03:18:01;5.22;;;2.10;;
74459;SDS011;62902;48.854;9.292;2023-04-25T03:20:28;4.13;;;1.58;;
74459;SDS011;62902;48.854;9.292;2023-04-25T03:22:55;3.72;;;1.50;;
74459;SDS011;62902;48.854;9.292;2023-04-25T03:25:21;173.73;;;82.75;;
74459;SDS011;62902;48.854;9.292;2023-04-25T03:27:48;3.08;;;1.55;;
74459;SDS011;62902;48.854;9.292;2023-04-25T03:30:14;5.35;;;1.63;;
74459;SDS011;62902;48.854;9.292;2023-04-25T03:32:42;4.30;;;2.00;;
74459;SDS011;62902;48.854;9.292;2023-04-25T03:35:12;41.60;;;25.10;;
74459;SDS011;62902;48.854;9.292;2023-04-25T03:37:39;4.25;;;1.75;;
74459;SDS011;62902;48.854;9.292;2023-04-25T03:40:07;5.57;;;2.22;;
74459;SDS011;62902;48.854;9.292;2023-04-25T03:43:03;22.23;;;13.70;;
74459;SDS011;62902;48.854;9.292;2023-04-25T03:45:30;3.92;;;1.90;;
74459;SDS011;62902;48.854;9.292;2023-04-25T03:47:57;38.55;;;25.10;;
74459;SDS011;62902;48.854;9.292;2023-04-25T03:50:26;177.02;;;89.78;;
74459;SDS011;62902;48.854;9.292;2023-04-25T03:52:53;50.22;;;26.38;;
74459;SDS011;62902;48.854;9.292;2023-04-25T03:55:20;4.10;;;1.92;;
74459;SDS011;62902;48.854;9.292;2023-04-25T03:57:46;4.20;;;1.92;;
74459;SDS011;62902;48.854;9.292;2023-04-25T04:00:13;4.50;;;2.17;;
74459;SDS011;62902;48.854;9.292;2023-04-25T04:02:40;59.53;;;30.55;;
74459;SDS011;62902;48.854;9.292;2023-04-25T04:05:10;5.10;;;2.05;;
74459;SDS011;62902;48.854;9.292;2023-04-25T04:07:42;3.92;;;1.92;;
74459;SDS011;62902;48.854;9.292;2023-04-25T04:10:10;43.53;;;27.48;;
74459;SDS011;62902;48.854;9.292;2023-04-25T04:12:39;18.48;;;12.98;;
74459;SDS011;62902;48.854;9.292;2023-04-25T04:15:05;5.82;;;2.22;;
74459;SDS011;62902;48.854;9.292;2023-04-25T04:20:00;5.95;;;2.50;;
74459;SDS011;62902;48.854;9.292;2023-04-25T04:22:29;5.80;;;2.20;;
74459;SDS011;62902;48.854;9.292;2023-04-25T04:25:00;12.10;;;5.75;;
74459;SDS011;62902;48.854;9.292;2023-04-25T04:27:49;7.00;;;2.75;;
74459;SDS011;62902;48.854;9.292;2023-04-25T04:30:26;4.57;;;2.60;;
74459;SDS011;62902;48.854;9.292;2023-04-25T04:32:57;6.05;;;3.10;;
74459;SDS011;62902;48.854;9.292;2023-04-25T04:35:24;6.35;;;2.78;;
74459;SDS011;62902;48.854;9.292;2023-04-25T04:37:51;4.93;;;2.35;;
74459;SDS011;62902;48.854;9.292;2023-04-25T04:40:19;6.30;;;2.90;;
74459;SDS011;62902;48.854;9.292;2023-04-25T04:42:54;5.07;;;2.60;;
74459;SDS011;62902;48.854;9.292;2023-04-25T04:45:41;6.85;;;2.70;;
74459;SDS011;62902;48.854;9.292;2023-04-25T04:48:23;27.95;;;16.48;;
74459;SDS011;62902;48.854;9.292;2023-04-25T04:51:15;32.70;;;18.80;;
74459;SDS011;62902;48.854;9.292;2023-04-25T04:54:17;30.13;;;13.25;;
74459;SDS011;62902;48.854;9.292;2023-04-25T04:57:07;4.60;;;2.45;;
74459;SDS011;62902;48.854;9.292;2023-04-25T04:59:41;7.30;;;3.15;;
74459;SDS011;62902;48.854;9.292;2023-04-25T05:02:37;20.77;;;11.50;;
74459;SDS011;62902;48.854;9.292;2023-04-25T05:05:27;11.13;;;8.02;;
74459;SDS011;62902;48.854;9.292;2023-04-25T05:08:16;45.45;;;25.88;;
74459;SDS011;62902;48.854;9.292;2023-04-25T05:11:12;5.55;;;2.40;;
74459;SDS011;62902;48.854;9.292;2023-04-25T05:13:55;6.70;;;2.33;;
74459;SDS011;62902;48.854;9.292;2023-04-25T05:16:41;15.68;;;7.43;;
74459;SDS011;62902;48.854;9.292;2023-04-25T05:19:31;97.72;;;46.88;;
74459;SDS011;62902;48.854;9.292;2023-04-25T05:22:16;68.85;;;34.72;;
74459;SDS011;62902;48.854;9.292;2023-04-25T05:24:59;99.85;;;59.45;;
74459;SDS011;62902;48.854;9.292;2023-04-25T05:27:44;39.38;;;26.08;;
74459;SDS011;62902;48.854;9.292;2023-04-25T05:30:23;5.55;;;2.80;;
74459;SDS011;62902;48.854;9.292;2023-04-25T05:33:02;8.50;;;2.65;;
74459;SDS011;62902;48.854;9.292;2023-04-25T05:35:30;5.63;;;2.58;;
74459;SDS011;62902;48.854;9.292;2023-04-25T05:37:57;5.82;;;3.15;;
74459;SDS011;62902;48.854;9.292;2023-04-25T05:40:42;7.30;;;2.65;;
74459;SDS011;62902;48.854;9.292;2023-04-25T05:43:25;7.13;;;2.60;;
74459;SDS011;62902;48.854;9.292;2023-04-25T05:46:08;4.70;;;2.45;;
74459;SDS011;62902;48.854;9.292;2023-04-25T05:48:44;6.47;;;2.53;;
74459;SDS011;62902;48.854;9.292;2023-04-25T05:51:28;5.32;;;2.67;;
74459;SDS011;62902;48.854;9.292;2023-04-25T05:54:06;6.78;;;3.53;;
74459;SDS011;62902;48.854;9.292;2023-04-25T05:56:33;5.22;;;2.40;;
74459;SDS011;62902;48.854;9.292;2023-04-25T05:59:00;6.30;;;2.65;;
74459;SDS011;62902;48.854;9.292;2023-04-25T06:01:27;5.38;;;2.90;;
74459;SDS011;62902;48.854;9.292;2023-04-25T06:03:53;5.93;;;2.83;;
74459;SDS011;62902;48.854;9.292;2023-04-25T06:06:21;6.00;;;3.00;;
74459;SDS011;62902;48.854;9.292;2023-04-25T06:08:47;5.55;;;2.70;;
74459;SDS011;62902;48.854;9.292;2023-04-25T06:11:14;6.95;;;2.97;;
74459;SDS011;62902;48.854;9.292;2023-04-25T06:13:41;7.07;;;2.83;;
74459;SDS011;62902;48.854;9.292;2023-04-25T06:16:07;6.90;;;2.90;;
74459;SDS011;62902;48.854;9.292;2023-04-25T06:18:34;4.93;;;2.50;;
74459;SDS011;62902;48.854;9.292;2023-04-25T06:21:00;5.40;;;2.78;;
74459;SDS011;62902;48.854;9.292;2023-04-25T06:23:27;6.32;;;2.90;;
74459;SDS011;62902;48.854;9.292;2023-04-25T06:26:01;5.28;;;2.90;;
74459;SDS011;62902;48.854;9.292;2023-04-25T06:28:29;6.53;;;3.30;;
74459;SDS011;62902;48.854;9.292;2023-04-25T06:30:56;6.43;;;2.92;;
74459;SDS011;62902;48.854;9.292;2023-04-25T06:33:22;5.55;;;2.78;;
74459;SDS011;62902;48.854;9.292;2023-04-25T06:35:51;6.10;;;2.80;;
74459;SDS011;62902;48.854;9.292;2023-04-25T06:38:22;4.45;;;2.38;;
74459;SDS011;62902;48.854;9.292;2023-04-25T06:40:50;6.07;;;2.65;;
74459;SDS011;62902;48.854;9.292;2023-04-25T06:43:18;6.85;;;2.67;;
74459;SDS011;62902;48.854;9.292;2023-04-25T06:46:04;5.88;;;2.60;;
74459;SDS011;62902;48.854;9.292;2023-04-25T06:48:37;6.60;;;2.95;;
74459;SDS011;62902;48.854;9.292;2023-04-25T06:51:04;5.43;;;2.72;;
74459;SDS011;62902;48.854;9.292;2023-04-25T06:53:32;5.32;;;2.38;;
74459;SDS011;62902;48.854;9.292;2023-04-25T06:56:01;4.60;;;2.25;;
74459;SDS011;62902;48.854;9.292;2023-04-25T06:58:40;4.63;;;2.35;;
74459;SDS011;62902;48.854;9.292;2023-04-25T07:01:11;5.25;;;2.45;;
74459;SDS011;62902;48.854;9.292;2023-04-25T07:03:38;5.18;;;2.33;;
74459;SDS011;62902;48.854;9.292;2023-04-25T07:06:10;5.43;;;2.53;;
74459;SDS011;62902;48.854;9.292;2023-04-25T07:08:37;6.30;;;2.33;;
74459;SDS011;62902;48.854;9.292;2023-04-25T07:11:04;5.03;;;2.72;;
74459;SDS011;62902;48.854;9.292;2023-04-25T07:13:30;4.90;;;2.70;;
74459;SDS011;62902;48.854;9.292;2023-04-25T07:15:57;5.68;;;2.90;;
74459;SDS011;62902;48.854;9.292;2023-04-25T07:18:26;5.30;;;2.33;;
74459;SDS011;62902;48.854;9.292;2023-04-25T07:20:52;4.72;;;2.45;;
74459;SDS011;62902;48.854;9.292;2023-04-25T07:23:19;5.20;;;2.63;;
74459;SDS011;62902;48.854;9.292;2023-04-25T07:25:46;6.90;;;2.42;;
74459;SDS011;62902;48.854;9.292;2023-04-25T07:28:17;5.45;;;2.53;;
74459;SDS011;62902;48.854;9.292;2023-04-25T07:30:46;4.45;;;2.67;;
74459;SDS011;62902;48.854;9.292;2023-04-25T07:33:12;5.28;;;2.78;;
74459;SDS011;62902;48.854;9.292;2023-04-25T07:35:39;5.75;;;2.70;;
74459;SDS011;62902;48.854;9.292;2023-04-25T07:38:06;7.90;;;3.13;;
74459;SDS011;62902;48.854;9.292;2023-04-25T07:40:33;5.47;;;2.67;;
74459;SDS011;62902;48.854;9.292;2023-04-25T07:43:04;5.80;;;2.50;;
74459;SDS011;62902;48.854;9.292;2023-04-25T07:45:37;6.68;;;2.47;;
74459;SDS011;62902;48.854;9.292;2023-04-25T07:48:04;6.15;;;2.30;;
74459;SDS011;62902;48.854;9.292;2023-04-25T07:50:35;5.95;;;2.65;;
74459;SDS011;62902;48.854;9.292;2023-04-25T07:53:01;4.43;;;2.13;;
74459;SDS011;62902;48.854;9.292;2023-04-25T07:55:34;4.72;;;2.10;;
74459;SDS011;62902;48.854;9.292;2023-04-25T07:58:08;6.28;;;2.50;;
74459;SDS011;62902;48.854;9.292;2023-04-25T08:00:38;4.97;;;2.40;;
74459;SDS011;62902;48.854;9.292;2023-04-25T08:03:23;7.82;;;3.80;;
74459;SDS011;62902;48.854;9.292;2023-04-25T08:05:50;7.32;;;4.05;;
74459;SDS011;62902;48.854;9.292;2023-04-25T08:08:18;11.90;;;3.95;;
74459;SDS011;62902;48.854;9.292;2023-04-25T08:10:44;7.68;;;4.25;;
74459;SDS011;62902;48.854;9.292;2023-04-25T08:13:12;7.65;;;4.28;;
74459;SDS011;62902;48.854;9.292;2023-04-25T08:15:39;8.45;;;4.50;;
74459;SDS011;62902;48.854;9.292;2023-04-25T08:18:06;9.30;;;4.90;;
74459;SDS011;62902;48.854;9.292;2023-04-25T08:20:32;10.38;;;5.00;;
74459;SDS011;62902;48.854;9.292;2023-04-25T08:23:02;9.10;;;4.80;;
74459;SDS011;62902;48.854;9.292;2023-04-25T08:25:49;10.60;;;5.78;;
74459;SDS011;62902;48.854;9.292;2023-04-25T08:28:18;11.43;;;6.07;;
74459;SDS011;62902;48.854;9.292;2023-04-25T08:30:45;10.93;;;5.68;;
74459;SDS011;62902;48.854;9.292;2023-04-25T08:33:13;11.52;;;5.97;;
74459;SDS011;62902;48.854;9.292;2023-04-25T08:36:01;13.30;;;5.80;;
74459;SDS011;62902;48.854;9.292;2023-04-25T08:38:30;13.80;;;6.30;;
74459;SDS011;62902;48.854;9.292;2023-04-25T08:40:58;13.75;;;6.85;;
74459;SDS011;62902;48.854;9.292;2023-04-25T08:43:27;10.27;;;6.05;;
74459;SDS011;62902;48.854;9.292;2023-04-25T08:45:55;12.57;;;6.53;;
74459;SDS011;62902;48.854;9.292;2023-04-25T08:48:33;11.60;;;6.13;;
74459;SDS011;62902;48.854;9.292;2023-04-25T08:51:03;13.20;;;6.47;;
74459;SDS011;62902;48.854;9.292;2023-04-25T08:53:33;12.77;;;6.75;;
74459;SDS011;62902;48.854;9.292;2023-04-25T08:56:03;15.55;;;6.32;;
74459;SDS011;62902;48.854;9.292;2023-04-25T08:58:33;11.68;;;6.22;;
74459;SDS011;62902;48.854;9.292;2023-04-25T09:01:01;12.38;;;6.07;;
74459;SDS011;62902;48.854;9.292;2023-04-25T09:03:32;12.40;;;5.85;;
74459;SDS011;62902;48.854;9.292;2023-04-25T09:05:59;13.25;;;5.97;;
74459;SDS011;62902;48.854;9.292;2023-04-25T09:08:26;14.15;;;6.25;;
74459;SDS011;62902;48.854;9.292;2023-04-25T09:10:53;11.88;;;6.38;;
74459;SDS011;62902;48.854;9.292;2023-04-25T09:13:26;13.10;;;6.65;;
74459;SDS011;62902;48.854;9.292;2023-04-25T09:16:16;12.27;;;5.80;;
74459;SDS011;62902;48.854;9.292;2023-04-25T09:19:05;11.90;;;6.07;;
74459;SDS011;62902;48.854;9.292;2023-04-25T09:21:34;15.18;;;6.43;;
74459;SDS011;62902;48.854;9.292;2023-04-25T09:24:01;11.73;;;5.78;;
74459;SDS011;62902;48.854;9.292;2023-04-25T09:26:28;12.88;;;6.10;;
74459;SDS011;62902;48.854;9.292;2023-04-25T09:29:06;10.40;;;5.80;;
74459;SDS011;62902;48.854;9.292;2023-04-25T09:31:39;10.32;;;5.00;;
74459;SDS011;62902;48.854;9.292;2023-04-25T09:34:07;9.15;;;5.07;;
74459;SDS011;62902;48.854;9.292;2023-04-25T09:36:42;17.10;;;6.07;;
74459;SDS011;62902;48.854;9.292;2023-04-25T09:39:14;10.05;;;5.53;;
74459;SDS011;62902;48.854;9.292;2023-04-25T09:41:55;12.00;;;5.80;;
74459;SDS011;62902;48.854;9.292;2023-04-25T09:44:24;11.75;;;6.30;;
74459;SDS011;62902;48.854;9.292;2023-04-25T09:46:52;12.88;;;6.47;;
74459;SDS011;62902;48.854;9.292;2023-04-25T09:49:22;13.88;;;6.45;;
74459;SDS011;62902;48.854;9.292;2023-04-25T09:52:03;12.32;;;6.28;;
74459;SDS011;62902;48.854;9.292;2023-04-25T09:54:46;14.15;;;7.07;;
74459;SDS011;62902;48.854;9.292;2023-04-25T09:57:18;13.68;;;7.18;;
74459;SDS011;62902;48.854;9.292;2023-04-25T09:59:56;14.45;;;7.32;;
74459;SDS011;62902;48.854;9.292;2023-04-25T10:02:25;12.93;;;6.68;;
74459;SDS011;62902;48.854;9.292;2023-04-25T10:04:58;15.23;;;7.03;;
74459;SDS011;62902;48.854;9.292;2023-04-25T10:07:34;14.98;;;7.07;;
74459;SDS011;62902;48.854;9.292;2023-04-25T10:10:07;15.18;;;7.32;;
74459;SDS011;62902;48.854;9.292;2023-04-25T10:12:35;15.13;;;6.57;;
74459;SDS011;62902;48.854;9.292;2023-04-25T10:15:02;13.07;;;6.53;;
74459;SDS011;62902;48.854;9.292;2023-04-25T10:22:32;10.48;;;5.55;;
74459;SDS011;62902;48.854;9.292;2023-04-25T10:25:01;13.48;;;5.55;;
74459;SDS011;62902;48.854;9.292;2023-04-25T10:27:30;9.30;;;4.90;;
74459;SDS011;62902;48.854;9.292;2023-04-25T10:30:01;10.88;;;5.65;;
74459;SDS011;62902;48.854;9.292;2023-04-25T10:32:35;11.52;;;5.72;;
74459;SDS011;62902;48.854;9.292;2023-04-25T10:35:11;10.80;;;5.38;;
74459;SDS011;62902;48.854;9.292;2023-04-25T10:37:58;12.40;;;5.93;;
74459;SDS011;62902;48.854;9.292;2023-04-25T10:41:07;14.73;;;7.35;;
74459;SDS011;62902;48.854;9.292;2023-04-25T10:43:40;14.80;;;7.03;;
74459;SDS011;62902;48.854;9.292;2023-04-25T10:48:56;14.52;;;6.65;;
74459;SDS011;62902;48.854;9.292;2023-04-25T10:51:27;16.88;;;6.22;;
74459;SDS011;62902;48.854;9.292;2023-04-25T10:54:06;12.13;;;6.50;;
74459;SDS011;62902;48.854;9.292;2023-04-25T10:56:37;17.70;;;7.07;;
74459;SDS011;62902;48.854;9.292;2023-04-25T11:01:37;16.33;;;6.78;;
74459;SDS011;62902;48.854;9.292;2023-04-25T11:04:05;15.00;;;5.75;;
74459;SDS011;62902;48.854;9.292;2023-04-25T11:06:39;10.90;;;4.93;;
74459;SDS011;62902;48.854;9.292;2023-04-25T11:09:34;12.65;;;5.15;;
74459;SDS011;62902;48.854;9.292;2023-04-25T11:12:01;19.63;;;6.53;;
74459;SDS011;62902;48.854;9.292;2023-04-25T11:14:28;13.02;;;5.78;;
74459;SDS011;62902;48.854;9.292;2023-04-25T11:16:55;15.35;;;5.70;;
74459;SDS011;62902;48.854;9.292;2023-04-25T11:19:26;12.35;;;6.07;;
74459;SDS011;62902;48.854;9.292;2023-04-25T11:21:56;9.45;;;4.53;;
74459;SDS011;62902;48.854;9.292;2023-04-25T11:24:27;12.15;;;5.30;;
74459;SDS011;62902;48.854;9.292;2023-04-25T11:26:54;12.85;;;4.90;;
74459;SDS011;62902;48.854;9.292;2023-04-25T11:29:22;12.60;;;5.38;;
74459;SDS011;62902;48.854;9.292;2023-04-25T11:34:17;10.35;;;4.57;;
74459;SDS011;62902;48.854;9.292;2023-04-25T11:36:44;11.23;;;5.18;;
74459;SDS011;62902;48.854;9.292;2023-04-25T11:39:11;9.52;;;4.38;;
74459;SDS011;62902;48.854;9.292;2023-04-25T11:41:38;9.43;;;4.10;;
74459;SDS011;62902;48.854;9.292;2023-04-25T11:44:07;8.95;;;4.32;;
74459;SDS011;62902;48.854;9.292;2023-04-25T11:46:34;7.00;;;3.58;;
74459;SDS011;62902;48.854;9.292;2023-04-25T11:49:01;7.93;;;4.00;;
74459;SDS011;62902;48.854;9.292;2023-04-25T11:51:28;7.63;;;3.80;;
74459;SDS011;62902;48.854;9.292;2023-04-25T11:53:55;6.97;;;3.67;;
74459;SDS011;62902;48.854;9.292;2023-04-25T11:56:22;8.40;;;4.05;;
74459;SDS011;62902;48.854;9.292;2023-04-25T12:04:23;10.98;;;5.50;;
74459;SDS011;62902;48.854;9.292;2023-04-25T12:06:52;12.02;;;5.20;;
74459;SDS011;62902;48.854;9.292;2023-04-25T12:09:20;11.35;;;5.57;;
74459;SDS011;62902;48.854;9.292;2023-04-25T12:11:53;10.98;;;5.13;;
74459;SDS011;62902;48.854;9.292;2023-04-25T12:14:22;13.48;;;5.68;;
74459;SDS011;62902;48.854;9.292;2023-04-25T12:16:55;8.95;;;4.95;;
74459;SDS011;62902;48.854;9.292;2023-04-25T12:19:23;8.85;;;4.32;;
74459;SDS011;62902;48.854;9.292;2023-04-25T12:21:50;13.00;;;5.30;;
74459;SDS011;62902;48.854;9.292;2023-04-25T12:24:24;13.07;;;5.82;;
74459;SDS011;62902;48.854;9.292;2023-04-25T12:27:02;14.90;;;6.30;;
74459;SDS011;62902;48.854;9.292;2023-04-25T12:29:31;12.00;;;5.85;;
74459;SDS011;62902;48.854;9.292;2023-04-25T12:32:13;13.77;;;6.32;;
74459;SDS011;62902;48.854;9.292;2023-04-25T12:34:40;12.20;;;5.75;;
74459;SDS011;62902;48.854;9.292;2023-04-25T12:37:06;14.30;;;6.80;;
74459;SDS011;62902;48.854;9.292;2023-04-25T12:39:33;19.00;;;7.13;;
74459;SDS011;62902;48.854;9.292;2023-04-25T12:41:59;13.18;;;6.82;;
74459;SDS011;62902;48.854;9.292;2023-04-25T12:44:27;15.50;;;6.88;;
74459;SDS011;62902;48.854;9.292;2023-04-25T12:46:53;17.13;;;6.95;;
74459;SDS011;62902;48.854;9.292;2023-04-25T12:49:21;16.27;;;7.38;;
74459;SDS011;62902;48.854;9.292;2023-04-25T12:51:48;20.17;;;7.38;;
74459;SDS011;62902;48.854;9.292;2023-04-25T12:54:15;16.77;;;7.35;;
74459;SDS011;62902;48.854;9.292;2023-04-25T12:56:42;18.00;;;8.63;;
74459;SDS011;62902;48.854;9.292;2023-04-25T12:59:08;14.45;;;6.45;;
74459;SDS011;62902;48.854;9.292;2023-04-25T13:01:38;18.95;;;8.23;;
74459;SDS011;62902;48.854;9.292;2023-04-25T13:04:05;16.90;;;7.07;;
74459;SDS011;62902;48.854;9.292;2023-04-25T13:06:32;11.57;;;5.30;;
74459;SDS011;62902;48.854;9.292;2023-04-25T13:08:59;10.02;;;5.43;;
74459;SDS011;62902;48.854;9.292;2023-04-25T13:11:25;14.88;;;7.20;;
74459;SDS011;62902;48.854;9.292;2023-04-25T13:13:52;11.20;;;5.55;;
74459;SDS011;62902;48.854;9.292;2023-04-25T13:16:19;15.25;;;7.95;;
74459;SDS011;62902;48.854;9.292;2023-04-25T13:18:47;14.45;;;6.70;;
74459;SDS011;62902;48.854;9.292;2023-04-25T13:21:14;11.43;;;5.47;;
74459;SDS011;62902;48.854;9.292;2023-04-25T13:23:41;13.10;;;5.40;;
74459;SDS011;62902;48.854;9.292;2023-04-25T13:26:09;13.10;;;7.07;;
74459;SDS011;62902;48.854;9.292;2023-04-25T13:28:35;15.00;;;6.82;;
74459;SDS011;62902;48.854;9.292;2023-04-25T13:31:02;14.73;;;6.25;;
74459;SDS011;62902;48.854;9.292;2023-04-25T13:33:28;19.52;;;7.47;;
74459;SDS011;62902;48.854;9.292;2023-04-25T13:35:55;14.60;;;6.78;;
74459;SDS011;62902;48.854;9.292;2023-04-25T13:40:50;17.00;;;7.07;;
74459;SDS011;62902;48.854;9.292;2023-04-25T13:43:21;16.85;;;8.02;;
74459;SDS011;62902;48.854;9.292;2023-04-25T13:45:50;12.45;;;7.18;;
74459;SDS011;62902;48.854;9.292;2023-04-25T13:48:18;14.30;;;7.38;;
74459;SDS011;62902;48.854;9.292;2023-04-25T13:50:45;17.52;;;8.55;;
74459;SDS011;62902;48.854;9.292;2023-04-25T13:53:11;18.75;;;9.00;;
74459;SDS011;62902;48.854;9.292;2023-04-25T13:55:38;17.38;;;9.63;;
74459;SDS011;62902;48.854;9.292;2023-04-25T13:58:05;20.98;;;10.65;;
74459;SDS011;62902;48.854;9.292;2023-04-25T14:00:36;18.80;;;10.50;;
74459;SDS011;62902;48.854;9.292;2023-04-25T14:03:05;24.73;;;10.93;;
74459;SDS011;62902;48.854;9.292;2023-04-25T14:05:34;26.65;;;10.68;;
74459;SDS011;62902;48.854;9.292;2023-04-25T14:08:06;23.85;;;10.90;;
74459;SDS011;62902;48.854;9.292;2023-04-25T14:10:33;18.23;;;9.07;;
74459;SDS011;62902;48.854;9.292;2023-04-25T14:13:01;18.27;;;9.18;;
74459;SDS011;62902;48.854;9.292;2023-04-25T14:15:30;16.70;;;8.52;;
74459;SDS011;62902;48.854;9.292;2023-04-25T14:17:58;17.77;;;8.88;;
74459;SDS011;62902;48.854;9.292;2023-04-25T14:20:25;20.75;;;9.48;;
74459;SDS011;62902;48.854;9.292;2023-04-25T14:22:52;16.55;;;9.02;;
74459;SDS011;62902;48.854;9.292;2023-04-25T14:25:20;15.05;;;8.52;;
74459;SDS011;62902;48.854;9.292;2023-04-25T14:27:47;14.95;;;8.43;;
74459;SDS011;62902;48.854;9.292;2023-04-25T14:32:43;12.68;;;7.78;;
74459;SDS011;62902;48.854;9.292;2023-04-25T14:35:10;16.40;;;8.13;;
74459;SDS011;62902;48.854;9.292;2023-04-25T14:37:37;16.02;;;7.18;;
74459;SDS011;62902;48.854;9.292;2023-04-25T14:40:04;17.02;;;7.60;;
74459;SDS011;62902;48.854;9.292;2023-04-25T14:42:31;14.20;;;7.63;;
74459;SDS011;62902;48.854;9.292;2023-04-25T14:44:59;15.35;;;8.05;;
74459;SDS011;62902;48.854;9.292;2023-04-25T14:47:25;15.27;;;7.18;;
74459;SDS011;62902;48.854;9.292;2023-04-25T14:49:52;15.95;;;8.57;;
74459;SDS011;62902;48.854;9.292;2023-04-25T14:54:47;18.98;;;7.40;;
74459;SDS011;62902;48.854;9.292;2023-04-25T14:57:15;13.63;;;7.43;;
74459;SDS011;62902;48.854;9.292;2023-04-25T14:59:42;12.45;;;6.95;;
74459;SDS011;62902;48.854;9.292;2023-04-25T15:02:08;11.38;;;6.15;;
74459;SDS011;62902;48.854;9.292;2023-04-25T15:04:35;15.73;;;6.22;;
74459;SDS011;62902;48.854;9.292;2023-04-25T15:07:01;15.30;;;6.57;;
74459;SDS011;62902;48.854;9.292;2023-04-25T15:09:29;13.32;;;5.63;;
74459;SDS011;62902;48.854;9.292;2023-04-25T15:11:56;13.63;;;6.50;;
74459;SDS011;62902;48.854;9.292;2023-04-25T15:14:23;14.63;;;7.43;;
74459;SDS011;62902;48.854;9.292;2023-04-25T15:16:50;11.95;;;6.75;;
74459;SDS011;62902;48.854;9.292;2023-04-25T15:19:17;10.95;;;5.65;;
74459;SDS011;62902;48.854;9.292;2023-04-25T15:21:43;10.93;;;5.03;;